Time;durP1;ratioP1;P1;durP2;ratioP2;P2;SDS_P1;SDS_P2;PMS_P1;PMS_P2;Temp;Humidity;BMP_temperature;BMP_pressure;BME280_temperature;BME280_humidity;BME280_pressure;Samples;Min_cycle;Max_cycle;Signal;HPM_P1;HPM_P2
2023/09/26 00:00:31;;;;;;;11.60;3.90;;;;;;;15.90;100.00;102045.63;5192289;28;20049;-78
2023/09/26 00:03:05;;;;;;;6.73;3.30;;;;;;;16.00;100.00;102082.09;5193666;28;20066;-79
2023/09/26 00:05:36;;;;;;;7.72;3.72;;;;;;;15.78;100.00;102043.81;5193886;28;20026;-80
2023/09/26 00:08:08;;;;;;;8.07;3.77;;;;;;;15.70;100.00;102039.84;5193159;28;20109;-78
2023/09/26 00:10:39;;;;;;;6.60;3.57;;;;;;;15.69;100.00;102037.31;5193946;28;20022;-78
2023/09/26 00:13:11;;;;;;;6.63;3.67;;;;;;;15.64;100.00;102039.38;5193191;28;20117;-78
2023/09/26 00:15:42;;;;;;;5.17;3.60;;;;;;;15.84;100.00;102077.75;5193913;28;20023;-79
2023/09/26 00:18:14;;;;;;;8.87;3.60;;;;;;;15.50;100.00;102033.16;5193923;28;20034;-78
2023/09/26 00:20:45;;;;;;;7.50;3.43;;;;;;;15.59;100.00;102043.16;5193797;28;20029;-78
2023/09/26 00:23:16;;;;;;;7.27;3.47;;;;;;;15.44;100.00;102028.25;5193977;28;20025;-79
2023/09/26 00:25:48;;;;;;;4.87;3.40;;;;;;;15.62;100.00;102043.91;5193568;28;20018;-79
2023/09/26 00:28:19;;;;;;;5.47;3.40;;;;;;;15.53;100.00;102042.69;5193586;28;20635;-78
2023/09/26 00:30:50;;;;;;;8.80;4.13;;;;;;;15.61;100.00;102061.53;5193581;28;20033;-76
2023/09/26 00:33:25;;;;;;;6.63;3.73;;;;;;;15.64;100.00;102045.50;5195306;28;20022;-78
2023/09/26 00:35:58;;;;;;;8.13;4.67;;;;;;;15.77;100.00;102071.13;5200604;28;20033;-77
2023/09/26 00:38:44;;;;;;;5.07;3.67;;;;;;;15.72;100.00;102016.84;5206815;28;20026;-79
2023/09/26 00:41:16;;;;;;;5.70;4.07;;;;;;;15.53;100.00;102026.84;5213702;28;20276;-79
2023/09/26 00:43:50;;;;;;;5.50;3.73;;;;;;;15.62;100.00;102042.13;5209625;28;20076;-80
2023/09/26 00:46:52;;;;;;;4.17;3.60;;;;;;;15.75;100.00;102073.88;5224891;28;20181;-79
2023/09/26 00:49:26;;;;;;;6.47;4.20;;;;;;;15.48;100.00;102046.44;5202571;28;20070;-80
2023/09/26 00:52:00;;;;;;;6.63;3.97;;;;;;;15.29;100.00;102011.59;5197036;28;20109;-80
2023/09/26 00:54:37;;;;;;;6.90;4.20;;;;;;;15.54;100.00;102069.00;5202402;28;20030;-81
2023/09/26 00:57:12;;;;;;;6.07;4.47;;;;;;;15.24;100.00;102017.97;5209924;28;20092;-79
2023/09/26 01:00:24;;;;;;;10.03;4.70;;;;;;;15.88;100.00;102065.19;5199377;28;20076;-80
2023/09/26 01:13:53;;;;;;;5.03;3.90;;;;;;;15.40;100.00;102027.59;5210809;28;20039;-79
2023/09/26 01:16:26;;;;;;;9.73;4.80;;;;;;;15.35;100.00;102059.56;5201244;28;20046;-79
2023/09/26 01:18:58;;;;;;;9.90;4.10;;;;;;;15.27;100.00;102016.09;5217166;28;20023;-79
2023/09/26 01:21:29;;;;;;;13.00;5.47;;;;;;;15.20;100.00;102037.56;5218706;28;20030;-80
2023/09/26 01:24:01;;;;;;;7.13;5.10;;;;;;;15.11;100.00;102014.41;5200262;28;20117;-81
2023/09/26 01:26:38;;;;;;;6.83;5.20;;;;;;;15.20;100.00;102057.84;5201903;28;20046;-80
2023/09/26 01:29:47;;;;;;;7.43;4.60;;;;;;;15.60;100.00;102060.69;5183606;28;20027;-80
2023/09/26 01:32:27;;;;;;;7.57;4.57;;;;;;;15.33;100.00;102060.59;5199665;28;20085;-82
2023/09/26 01:34:58;;;;;;;6.43;4.67;;;;;;;14.85;100.00;102006.28;5180346;28;20045;-82
2023/09/26 01:37:29;;;;;;;6.77;4.47;;;;;;;15.14;100.00;102037.97;5165437;28;20031;-82
2023/09/26 01:40:02;;;;;;;6.40;4.40;;;;;;;14.95;100.00;102043.50;5178088;28;20618;-82
2023/09/26 01:42:47;;;;;;;6.77;4.80;;;;;;;15.33;100.00;102058.81;5209533;28;20173;-81
2023/09/26 01:45:18;;;;;;;;;;;;;;;15.88;100.00;102065.19;5189198;28;20053;-82
2023/09/26 01:47:51;;;;;;;8.70;4.07;;;;;;;15.07;100.00;102031.34;5196747;28;19914;-82
2023/09/26 01:50:22;;;;;;;9.07;4.47;;;;;;;15.31;100.00;102059.81;5215153;28;20037;-82
2023/09/26 01:52:54;;;;;;;5.20;4.43;;;;;;;15.04;100.00;102015.72;5194687;28;20030;-82
2023/09/26 01:55:25;;;;;;;7.73;4.50;;;;;;;14.96;100.00;102009.09;5193931;28;20030;-81
2023/09/26 01:57:57;;;;;;;7.77;4.50;;;;;;;15.06;100.00;102056.03;5195107;28;20539;-82
2023/09/26 02:00:39;;;;;;;6.77;4.57;;;;;;;14.81;100.00;101995.06;5183587;28;20391;-82
2023/09/26 02:03:10;;;;;;;5.40;4.17;;;;;;;14.92;100.00;102017.31;5195669;28;20391;-82
2023/09/26 02:05:42;;;;;;;6.77;4.60;;;;;;;14.95;100.00;102017.97;5186553;28;20045;-82
2023/09/26 02:08:16;;;;;;;6.47;3.80;;;;;;;14.84;100.00;101994.00;5211940;28;20030;-81
2023/09/26 02:10:50;;;;;;;6.72;4.43;;;;;;;15.04;100.00;102024.47;5192974;28;20128;-80
2023/09/26 02:13:25;;;;;;;;;;;;;;;15.76;100.00;102049.16;5218691;28;20465;-82
2023/09/26 02:15:56;;;;;;;6.20;4.43;;;;;;;14.86;100.00;102034.31;5191384;28;19914;-81
2023/09/26 02:18:28;;;;;;;7.23;4.73;;;;;;;14.79;100.00;102035.59;5182117;28;20038;-81
2023/09/26 02:20:59;;;;;;;7.47;4.57;;;;;;;14.67;100.00;102009.03;5197684;28;20058;-81
2023/09/26 02:23:32;;;;;;;5.67;4.50;;;;;;;14.77;100.00;102009.31;5195874;28;20610;-80
2023/09/26 02:26:03;;;;;;;8.27;4.20;;;;;;;14.71;100.00;101996.50;5217011;28;20025;-80
2023/09/26 02:28:34;;;;;;;5.80;4.03;;;;;;;14.46;100.00;101996.16;5202123;28;20033;-81
2023/09/26 02:31:06;;;;;;;7.40;4.50;;;;;;;14.41;100.00;101987.66;5207579;28;20061;-81
2023/09/26 02:33:37;;;;;;;9.17;4.63;;;;;;;14.46;100.00;101998.78;5212676;28;20059;-81
2023/09/26 02:36:09;;;;;;;6.07;4.53;;;;;;;14.47;100.00;101997.84;5215913;28;20117;-81
2023/09/26 02:38:40;;;;;;;10.80;4.70;;;;;;;14.62;100.00;101995.25;5213999;28;20052;-82
2023/09/26 02:41:11;;;;;;;5.93;4.47;;;;;;;14.78;100.00;102032.13;5199114;28;20034;-81
2023/09/26 02:43:43;;;;;;;7.50;3.93;;;;;;;14.55;100.00;102001.81;5198033;28;20033;-80
2023/09/26 02:46:14;;;;;;;7.87;4.77;;;;;;;14.52;100.00;101995.78;5208586;28;20521;-80
2023/09/26 02:48:46;;;;;;;7.83;4.80;;;;;;;14.59;100.00;101977.00;5210417;28;20036;-81
2023/09/26 02:51:18;;;;;;;7.90;5.03;;;;;;;14.48;100.00;101962.66;5215657;28;20789;-78
2023/09/26 02:53:50;;;;;;;9.57;5.00;;;;;;;14.59;100.00;102001.56;5216261;28;20033;-78
2023/09/26 02:56:21;;;;;;;7.03;4.57;;;;;;;14.67;100.00;101989.72;5209266;28;20026;-79
2023/09/26 02:58:53;;;;;;;7.43;4.60;;;;;;;14.66;100.00;101980.13;5208160;28;20575;-79
2023/09/26 03:01:24;;;;;;;10.07;4.53;;;;;;;14.28;100.00;101959.38;5215759;28;20470;-80
2023/09/26 03:03:55;;;;;;;8.27;5.07;;;;;;;14.46;100.00;101964.53;5215666;28;20057;-80
2023/09/26 03:06:27;;;;;;;8.77;4.90;;;;;;;14.24;100.00;101943.84;5195508;28;20449;-80
2023/09/26 03:08:58;;;;;;;7.30;4.90;;;;;;;14.70;100.00;102000.06;5194860;28;20090;-79
2023/09/26 03:11:30;;;;;;;6.73;4.97;;;;;;;14.61;100.00;101996.19;5195124;28;20022;-80
2023/09/26 03:14:01;;;;;;;6.40;5.13;;;;;;;14.38;100.00;101958.88;5194465;28;20437;-80
2023/09/26 03:16:32;;;;;;;9.87;5.20;;;;;;;14.77;100.00;101990.84;5191183;28;20020;-80
2023/09/26 03:19:06;;;;;;;8.00;5.07;;;;;;;14.80;100.00;102000.38;5185543;28;20019;-80
2023/09/26 03:21:37;;;;;;;9.80;4.97;;;;;;;14.44;100.00;101969.03;5173467;28;20045;-80
2023/09/26 03:24:09;;;;;;;9.70;6.00;;;;;;;14.44;100.00;101962.91;5194559;28;20030;-80
2023/09/26 03:26:41;;;;;;;8.00;5.57;;;;;;;14.31;100.00;101954.88;5194142;28;20070;-79
2023/09/26 03:29:12;;;;;;;7.37;5.23;;;;;;;14.57;100.00;101963.03;5194495;28;20101;-80
2023/09/26 03:31:45;;;;;;;8.43;6.07;;;;;;;14.23;100.00;101964.06;5211862;28;20061;-78
2023/09/26 03:34:17;;;;;;;10.50;5.90;;;;;;;14.39;100.00;101964.03;5192074;28;20533;-81
2023/09/26 03:36:48;;;;;;;7.23;5.07;;;;;;;14.39;100.00;101960.56;5179801;28;20073;-80
2023/09/26 03:39:19;;;;;;;9.47;6.43;;;;;;;14.31;100.00;101953.09;5190521;28;20869;-79
2023/09/26 03:42:00;;;;;;;7.10;5.80;;;;;;;14.44;100.00;101966.41;5190029;28;20034;-81
2023/09/26 03:44:32;;;;;;;10.80;5.50;;;;;;;14.22;100.00;101965.03;5180160;28;20125;-78
2023/09/26 03:47:03;;;;;;;8.33;6.37;;;;;;;14.03;100.00;101933.63;5176438;28;20401;-80
2023/09/26 03:49:35;;;;;;;8.83;5.77;;;;;;;14.05;100.00;101941.44;5195118;28;20046;-82
2023/09/26 03:52:06;;;;;;;6.13;5.07;;;;;;;14.19;100.00;101952.00;5188303;28;20037;-81
2023/09/26 03:54:42;;;;;;;9.40;6.07;;;;;;;14.22;100.00;101953.63;5194671;28;20580;-81
2023/09/26 03:57:14;;;;;;;8.93;5.67;;;;;;;14.12;100.00;101951.50;5193846;28;20022;-81
2023/09/26 03:59:49;;;;;;;7.67;6.07;;;;;;;14.23;100.00;101947.41;5194467;28;20094;-80
2023/09/26 04:02:20;;;;;;;8.83;6.20;;;;;;;14.11;100.00;101957.72;5194155;28;20026;-81
2023/09/26 04:04:52;;;;;;;9.20;5.33;;;;;;;14.20;100.00;101958.13;5169611;28;20038;-81
2023/09/26 04:07:28;;;;;;;7.20;5.57;;;;;;;14.14;100.00;101941.75;5193330;28;20042;-81
2023/09/26 04:09:59;;;;;;;6.73;5.30;;;;;;;14.01;100.00;101949.50;5194474;28;20042;-81
2023/09/26 04:12:30;;;;;;;8.70;5.37;;;;;;;13.97;100.00;101955.88;5185373;28;20687;-81
2023/09/26 04:15:02;;;;;;;7.70;4.83;;;;;;;13.97;100.00;101953.25;5193679;28;20057;-81
2023/09/26 04:17:33;;;;;;;7.10;5.63;;;;;;;14.08;100.00;101978.13;5187630;28;20525;-81
2023/09/26 04:20:17;;;;;;;9.03;5.93;;;;;;;13.86;100.00;101963.56;5190702;28;20658;-79
2023/09/26 04:22:48;;;;;;;9.43;6.27;;;;;;;13.83;100.00;101947.91;5174499;28;20030;-80
2023/09/26 04:25:20;;;;;;;9.37;6.17;;;;;;;14.14;100.00;101968.09;5182211;28;20555;-79
2023/09/26 04:27:51;;;;;;;9.47;6.37;;;;;;;13.83;100.00;101934.72;5191200;28;20455;-79
2023/09/26 04:30:23;;;;;;;8.90;6.17;;;;;;;13.90;100.00;101944.00;5186888;28;20014;-79
2023/09/26 04:32:54;;;;;;;7.37;6.03;;;;;;;14.06;100.00;101951.03;5190516;28;20478;-80
2023/09/26 04:35:26;;;;;;;11.67;6.87;;;;;;;14.02;100.00;101940.66;5188146;28;20030;-81
2023/09/26 04:37:57;;;;;;;11.87;6.30;;;;;;;14.08;100.00;101949.16;5175326;28;20094;-80
2023/09/26 04:40:29;;;;;;;10.00;6.70;;;;;;;14.18;100.00;101967.91;5179534;28;20026;-79
2023/09/26 04:43:04;;;;;;;10.37;5.97;;;;;;;14.03;100.00;101926.53;5190751;28;20133;-79
2023/09/26 04:45:35;;;;;;;10.40;6.87;;;;;;;14.01;100.00;101920.53;5175830;28;20041;-80
2023/09/26 04:48:07;;;;;;;10.10;7.60;;;;;;;14.11;100.00;101948.97;5191899;28;20058;-80
2023/09/26 04:50:52;;;;;;;13.57;8.07;;;;;;;14.26;100.00;101947.25;5175051;28;20156;-80
2023/09/26 04:53:47;;;;;;;13.20;7.40;;;;;;;14.06;100.00;101908.88;5172601;28;20469;-78
2023/09/26 04:56:19;;;;;;;9.43;7.00;;;;;;;14.06;100.00;101920.28;5188538;28;20030;-79
2023/09/26 04:58:50;;;;;;;9.50;7.30;;;;;;;14.21;100.00;101931.69;5191101;28;20045;-79
2023/09/26 05:01:26;;;;;;;15.37;7.47;;;;;;;14.20;100.00;101905.44;5177841;28;20490;-79
2023/09/26 05:03:57;;;;;;;10.00;7.70;;;;;;;14.28;100.00;101933.03;5183498;28;20022;-79
2023/09/26 05:06:31;;;;;;;9.03;7.23;;;;;;;14.36;100.00;101945.78;5187979;28;20042;-80
2023/09/26 05:09:05;;;;;;;;;;;;;;;14.86;100.00;101950.78;5179022;28;20023;-79
2023/09/26 05:11:36;;;;;;;8.97;6.97;;;;;;;14.18;100.00;101913.44;5171843;28;20388;-79
2023/09/26 05:14:08;;;;;;;11.33;6.77;;;;;;;14.13;100.00;101912.84;5191343;28;20026;-79
2023/09/26 05:16:39;;;;;;;10.23;7.07;;;;;;;14.20;100.00;101930.00;5191610;28;20069;-80
2023/09/26 05:19:11;;;;;;;10.80;7.23;;;;;;;14.07;100.00;101905.31;5184228;28;20413;-80
2023/09/26 05:21:42;;;;;;;11.70;6.87;;;;;;;13.83;100.00;101882.06;5185545;28;20085;-78
2023/09/26 05:24:13;;;;;;;13.43;8.10;;;;;;;14.30;100.00;101942.63;5185064;28;20030;-79
2023/09/26 05:26:45;;;;;;;10.93;7.57;;;;;;;14.20;100.00;101937.91;5174799;28;20030;-80
2023/09/26 05:29:16;;;;;;;12.20;7.90;;;;;;;13.99;100.00;101911.03;5190031;28;20034;-80
2023/09/26 05:31:47;;;;;;;11.90;6.17;;;;;;;14.27;100.00;101936.63;5191474;28;20488;-78
2023/09/26 05:34:19;;;;;;;8.40;6.47;;;;;;;14.00;100.00;101905.66;5175113;28;20745;-79
2023/09/26 05:36:50;;;;;;;11.63;7.80;;;;;;;13.97;100.00;101921.66;5187768;28;20500;-79
2023/09/26 05:39:22;;;;;;;9.07;5.90;;;;;;;14.15;100.00;101940.78;5169947;28;20026;-80
2023/09/26 05:43:07;;;;;;;;;;;;;;;;;;;;;
2023/09/26 05:45:48;;;;;;;11.88;7.18;;;;;;;14.30;100.00;101926.81;5093191;28;20029;-79
2023/09/26 05:48:19;;;;;;;9.00;6.90;;;;;;;13.97;100.00;101920.78;5179865;28;20147;-81
2023/09/26 05:55:01;;;;;;;8.37;6.57;;;;;;;14.56;100.00;101961.34;5200119;28;20030;-77
2023/09/26 05:57:32;;;;;;;11.83;7.40;;;;;;;14.22;100.00;101929.91;5187363;28;20038;-81
2023/09/26 06:00:06;;;;;;;10.63;7.47;;;;;;;14.29;100.00;101931.25;5199959;28;20018;-79
2023/09/26 06:02:41;;;;;;;13.23;8.00;;;;;;;14.37;100.00;101946.59;5204087;28;20115;-79
2023/09/26 06:05:13;;;;;;;13.67;8.40;;;;;;;14.38;100.00;101961.50;5202017;28;20495;-80
2023/09/26 06:07:44;;;;;;;9.20;7.50;;;;;;;14.17;100.00;101942.50;5185822;28;20026;-80
2023/09/26 06:10:16;;;;;;;11.43;7.53;;;;;;;14.23;100.00;101940.38;5192782;28;20025;-79
2023/09/26 06:12:47;;;;;;;11.97;7.70;;;;;;;14.21;100.00;101928.19;5183770;28;20032;-80
2023/09/26 06:15:18;;;;;;;9.63;6.77;;;;;;;14.51;100.00;101949.28;5171505;28;20143;-80
2023/09/26 06:17:57;;;;;;;11.60;7.77;;;;;;;14.56;100.00;101937.59;5175926;28;20675;-80
2023/09/26 06:20:34;;;;;;;12.10;7.90;;;;;;;14.34;100.00;101902.00;5173886;28;20114;-80
2023/09/26 06:23:06;;;;;;;11.50;6.50;;;;;;;14.37;100.00;101897.41;5173975;28;20109;-81
2023/09/26 06:29:05;;;;;;;8.07;6.87;;;;;;;14.54;100.00;101918.44;5418614;23;20025;-68
2023/09/26 06:31:38;;;;;;;10.17;6.90;;;;;;;14.76;100.00;101939.06;5295126;28;20040;-68
2023/09/26 06:34:09;;;;;;;11.30;6.97;;;;;;;14.74;100.00;101941.81;5311783;28;20063;-68
2023/09/26 06:36:42;;;;;;;13.23;7.43;;;;;;;14.96;100.00;101940.53;5313458;28;20065;-69
2023/09/26 06:39:14;;;;;;;10.47;6.87;;;;;;;14.94;100.00;101941.56;5303310;28;20116;-68
2023/09/26 06:41:46;;;;;;;13.40;7.67;;;;;;;14.93;100.00;101946.00;5295322;28;20501;-68
2023/09/26 06:44:17;;;;;;;21.40;8.93;;;;;;;14.81;100.00;101944.09;5282827;28;20024;-69
2023/09/26 06:46:48;;;;;;;8.20;6.43;;;;;;;14.91;100.00;101950.50;5295348;28;20251;-67
2023/09/26 06:49:20;;;;;;;11.63;7.83;;;;;;;14.87;100.00;101954.28;5310846;28;20024;-68
2023/09/26 06:51:51;;;;;;;10.80;7.40;;;;;;;14.98;100.00;101954.47;5296425;28;20069;-68
2023/09/26 06:54:23;;;;;;;6.77;6.07;;;;;;;15.06;100.00;101942.59;5282044;28;20016;-68
2023/09/26 06:56:54;;;;;;;11.80;6.70;;;;;;;15.10;100.00;101946.72;5304376;28;20506;-68
2023/09/26 06:59:25;;;;;;;9.00;6.73;;;;;;;15.03;100.00;101950.72;5303708;28;20040;-68
2023/09/26 07:01:57;;;;;;;9.70;7.13;;;;;;;15.09;100.00;101964.38;5284437;28;20089;-68
2023/09/26 07:04:28;;;;;;;13.47;6.97;;;;;;;15.29;100.00;101959.63;5302667;28;20020;-69
2023/09/26 07:07:00;;;;;;;15.37;8.50;;;;;;;15.39;100.00;101961.72;5281789;28;20034;-68
2023/09/26 07:09:32;;;;;;;11.60;6.47;;;;;;;15.48;100.00;101967.25;5290344;28;20032;-68
2023/09/26 07:12:03;;;;;;;16.57;7.30;;;;;;;15.54;100.00;101967.81;5286818;28;20553;-68
2023/09/26 07:14:35;;;;;;;10.70;5.70;;;;;;;15.63;100.00;101967.22;5291715;28;20510;-70
2023/09/26 07:17:09;;;;;;;12.47;6.93;;;;;;;15.77;100.00;101965.50;5278676;28;20028;-66
2023/09/26 07:19:41;;;;;;;11.85;6.57;;;;;;;15.73;100.00;101952.50;5292943;28;20036;-65
2023/09/26 07:22:12;;;;;;;9.27;5.80;;;;;;;15.77;100.00;101955.78;5299719;28;20038;-64
2023/09/26 07:24:49;;;;;;;10.90;6.37;;;;;;;15.96;100.00;101955.44;5311263;28;20645;-67
2023/09/26 07:27:20;;;;;;;11.53;6.00;;;;;;;15.87;100.00;101956.03;5286864;28;20031;-66
2023/09/26 07:29:52;;;;;;;14.53;6.73;;;;;;;15.91;100.00;101946.13;5297002;28;20664;-67
2023/09/26 07:32:24;;;;;;;10.67;6.40;;;;;;;16.09;100.00;101955.50;5308648;28;20096;-66
2023/09/26 07:34:55;;;;;;;8.87;5.17;;;;;;;16.10;100.00;101953.72;5310554;28;20458;-67
2023/09/26 07:37:26;;;;;;;6.93;5.33;;;;;;;16.25;100.00;101951.00;5281915;28;20115;-67
2023/09/26 07:39:58;;;;;;;8.53;5.10;;;;;;;16.40;100.00;101952.63;5302871;28;20540;-68
2023/09/26 07:42:29;;;;;;;9.20;5.50;;;;;;;16.38;100.00;101954.53;5298136;28;20420;-69
2023/09/26 07:45:00;;;;;;;8.87;5.50;;;;;;;16.41;100.00;101951.66;5305773;28;20093;-68
2023/09/26 07:47:32;;;;;;;8.10;5.33;;;;;;;16.59;100.00;101948.72;5307178;28;20020;-67
2023/09/26 07:50:04;;;;;;;7.80;4.50;;;;;;;16.62;100.00;101951.16;5309139;28;20020;-68
2023/09/26 07:52:35;;;;;;;10.73;5.43;;;;;;;16.78;100.00;101950.09;5284919;28;20224;-68
2023/09/26 07:55:07;;;;;;;9.50;4.60;;;;;;;16.79;100.00;101951.81;5295741;28;20028;-69
2023/09/26 07:57:38;;;;;;;11.63;5.13;;;;;;;16.90;100.00;101959.00;5294792;28;20561;-68
2023/09/26 08:00:12;;;;;;;14.93;6.03;;;;;;;16.86;100.00;101957.53;5289679;28;20827;-67
2023/09/26 08:02:43;;;;;;;;;;;;;;;17.42;100.00;101959.78;5271293;28;20115;-68
2023/09/26 08:05:15;;;;;;;7.93;4.90;;;;;;;17.10;100.00;101955.00;5297301;28;20049;-65
2023/09/26 08:07:48;;;;;;;8.60;5.20;;;;;;;17.24;100.00;101955.81;5298281;28;20039;-65
2023/09/26 08:10:19;;;;;;;11.57;5.90;;;;;;;17.39;100.00;101952.09;5295825;28;20103;-69
2023/09/26 08:12:50;;;;;;;7.60;5.07;;;;;;;17.54;100.00;101936.88;5290073;28;20146;-68
2023/09/26 08:15:22;;;;;;;10.37;4.50;;;;;;;17.59;100.00;101928.63;5279559;28;20486;-68
2023/09/26 08:17:53;;;;;;;10.53;4.60;;;;;;;17.69;100.00;101938.53;5285288;28;20049;-68
2023/09/26 08:20:24;;;;;;;6.93;4.83;;;;;;;18.08;100.00;101938.34;5280933;28;20029;-68
2023/09/26 08:22:55;;;;;;;6.70;4.13;;;;;;;18.28;100.00;101950.13;5276594;28;20032;-68
2023/09/26 08:25:27;;;;;;;6.40;4.60;;;;;;;18.76;100.00;101943.00;5275194;28;20051;-67
2023/09/26 08:27:58;;;;;;;8.33;4.90;;;;;;;19.13;100.00;101939.28;5294704;28;20442;-68
2023/09/26 08:30:29;;;;;;;12.63;4.73;;;;;;;19.50;100.00;101938.13;5295949;28;20054;-67
2023/09/26 08:33:01;;;;;;;6.87;4.30;;;;;;;20.25;100.00;101940.06;5276518;28;20028;-68
2023/09/26 08:35:32;;;;;;;7.00;4.87;;;;;;;20.92;100.00;101942.38;5296472;28;20039;-67
2023/09/26 08:38:03;;;;;;;6.90;3.87;;;;;;;20.88;100.00;101940.09;5287607;28;20048;-68
2023/09/26 08:40:35;;;;;;;7.13;4.50;;;;;;;21.01;100.00;101943.44;5295473;28;20024;-68
2023/09/26 08:43:07;;;;;;;10.48;3.80;;;;;;;21.69;100.00;101933.06;5295036;28;20036;-67
2023/09/26 08:45:39;;;;;;;18.67;5.80;;;;;;;21.86;100.00;101933.38;5289561;28;20028;-68
2023/09/26 08:48:10;;;;;;;9.95;4.65;;;;;;;22.11;100.00;101931.94;5287364;28;20044;-68
2023/09/26 08:50:42;;;;;;;8.90;4.40;;;;;;;22.94;100.00;101926.97;5278135;28;20463;-68
2023/09/26 08:53:13;;;;;;;9.82;3.75;;;;;;;22.89;91.81;101921.22;5295526;28;20032;-69
2023/09/26 08:55:49;;;;;;;8.25;3.67;;;;;;;23.00;86.84;101928.19;5260586;28;20471;-69
2023/09/26 08:58:21;;;;;;;7.95;4.00;;;;;;;23.09;91.00;101934.50;5285690;28;20024;-67
2023/09/26 09:00:54;;;;;;;10.30;4.82;;;;;;;23.05;78.39;101927.75;5294150;28;20028;-68
2023/09/26 09:03:25;;;;;;;8.27;3.80;;;;;;;23.40;79.20;101936.84;5268791;28;20028;-68
2023/09/26 09:05:56;;;;;;;10.82;4.38;;;;;;;23.73;76.65;101924.78;5293343;28;20028;-68
2023/09/26 09:08:28;;;;;;;8.90;3.97;;;;;;;24.47;72.71;101916.47;5294637;28;20043;-69
2023/09/26 09:10:59;;;;;;;7.32;3.40;;;;;;;25.08;66.59;101926.31;5273286;28;20024;-67
2023/09/26 09:13:32;;;;;;;7.90;3.55;;;;;;;25.66;57.68;101924.81;5295425;28;20430;-68
2023/09/26 09:16:08;;;;;;;7.05;4.15;;;;;;;26.20;56.01;101923.41;5290908;28;20031;-69
2023/09/26 09:18:57;;;;;;;7.90;3.17;;;;;;;26.91;55.71;101927.25;5295667;28;20039;-68
2023/09/26 09:21:30;;;;;;;9.80;3.78;;;;;;;26.96;48.86;101935.63;5266467;28;20153;-67
2023/09/26 09:24:05;;;;;;;6.43;3.40;;;;;;;27.10;45.12;101941.31;5295673;28;20012;-68
2023/09/26 09:26:36;;;;;;;8.43;3.72;;;;;;;26.91;45.19;101938.00;5294231;28;20670;-68
2023/09/26 09:29:25;;;;;;;6.05;3.10;;;;;;;27.53;49.22;101932.78;5294363;28;20027;-68
2023/09/26 09:31:56;;;;;;;5.38;3.33;;;;;;;27.68;43.89;101932.88;5275058;28;20170;-68
2023/09/26 09:34:28;;;;;;;6.57;3.60;;;;;;;28.09;43.46;101938.91;5266185;28;20135;-69
2023/09/26 09:36:59;;;;;;;5.43;3.03;;;;;;;27.65;42.43;101923.28;5302015;28;20130;-67
2023/09/26 09:39:30;;;;;;;7.82;3.50;;;;;;;27.15;42.78;101917.41;5289460;28;20127;-68
2023/09/26 09:42:03;;;;;;;5.28;2.78;;;;;;;26.74;43.86;101927.31;5273990;28;20424;-69
2023/09/26 09:44:35;;;;;;;4.55;2.80;;;;;;;26.81;45.05;101922.94;5296739;28;20072;-69
2023/09/26 09:47:08;;;;;;;6.90;3.15;;;;;;;26.72;47.07;101904.34;5298197;28;20024;-68
2023/09/26 09:49:41;;;;;;;5.80;2.90;;;;;;;26.82;45.43;101897.75;5287924;28;20026;-68
2023/09/26 09:52:16;;;;;;;6.38;2.95;;;;;;;26.33;46.18;101899.56;5301267;28;20026;-69
2023/09/26 09:54:51;;;;;;;7.97;3.03;;;;;;;26.81;43.44;101911.38;5299241;28;20033;-68
2023/09/26 09:57:27;;;;;;;6.15;3.25;;;;;;;26.25;42.65;101904.94;5302628;28;20106;-68
2023/09/26 10:00:01;;;;;;;6.32;2.97;;;;;;;26.03;44.39;101915.41;5288427;28;20409;-68
2023/09/26 10:02:34;;;;;;;8.35;3.17;;;;;;;26.09;44.53;101909.34;5279181;28;20039;-68
2023/09/26 10:05:12;;;;;;;9.13;3.15;;;;;;;25.73;47.59;101904.34;5291032;28;20020;-68
2023/09/26 10:07:44;;;;;;;6.43;3.20;;;;;;;26.01;46.66;101905.84;5294336;28;20040;-69
2023/09/26 10:10:18;;;;;;;8.10;3.03;;;;;;;25.54;47.42;101895.59;5276078;28;20051;-68
2023/09/26 10:12:50;;;;;;;5.53;3.38;;;;;;;25.68;49.38;101896.78;5273646;28;20111;-68
2023/09/26 10:15:22;;;;;;;8.57;3.35;;;;;;;25.56;48.47;101904.31;5306969;28;20103;-69
2023/09/26 10:17:53;;;;;;;7.13;3.40;;;;;;;25.50;49.81;101911.16;5294727;28;20544;-68
2023/09/26 10:20:28;;;;;;;5.93;3.05;;;;;;;25.29;50.66;101903.59;5294624;28;20028;-68
2023/09/26 10:23:12;;;;;;;5.70;3.30;;;;;;;25.16;53.41;101893.34;5292176;28;20035;-68
2023/09/26 10:25:43;;;;;;;9.27;3.67;;;;;;;24.96;53.39;101907.03;5282162;28;20044;-68
2023/09/26 10:28:16;;;;;;;6.80;3.20;;;;;;;24.76;55.61;101895.72;5286324;28;20567;-67
2023/09/26 10:30:55;;;;;;;7.47;3.95;;;;;;;24.86;55.98;101899.09;5293390;28;20380;-69
2023/09/26 10:33:28;;;;;;;4.75;3.38;;;;;;;24.42;55.65;101902.75;5297964;28;20031;-68
2023/09/26 10:36:04;;;;;;;7.82;3.50;;;;;;;24.75;56.64;101896.72;5297586;28;20028;-68
2023/09/26 10:38:35;;;;;;;7.03;3.42;;;;;;;24.67;56.16;101894.84;5297645;28;20024;-68
2023/09/26 10:41:09;;;;;;;5.07;3.38;;;;;;;24.71;56.87;101890.00;5296373;28;20051;-67
2023/09/26 10:43:41;;;;;;;9.07;3.85;;;;;;;24.31;56.63;101879.78;5298082;28;20027;-69
2023/09/26 10:46:12;;;;;;;5.90;3.17;;;;;;;24.25;57.03;101875.88;5279024;28;20058;-68
2023/09/26 10:48:43;;;;;;;8.35;3.45;;;;;;;24.64;57.07;101890.66;5276899;28;20028;-68
2023/09/26 10:51:16;;;;;;;5.50;3.15;;;;;;;24.59;57.68;101897.47;5278312;28;20154;-70
2023/09/26 10:53:48;;;;;;;7.38;3.42;;;;;;;24.67;56.93;101896.66;5295642;28;20020;-67
2023/09/26 10:56:20;;;;;;;6.22;3.35;;;;;;;24.62;57.57;101889.13;5295303;28;20039;-68
2023/09/26 10:58:53;;;;;;;5.95;3.75;;;;;;;24.57;57.80;101873.56;5295935;28;20024;-67
2023/09/26 11:01:45;;;;;;;6.72;3.03;;;;;;;24.63;61.29;101877.41;5290881;28;20036;-67
2023/09/26 11:04:16;;;;;;;11.68;3.78;;;;;;;24.63;57.96;101886.28;5291018;28;20020;-66
2023/09/26 11:06:47;;;;;;;7.10;3.58;;;;;;;24.61;57.66;101888.28;5316053;28;20041;-71
2023/09/26 11:09:19;;;;;;;8.93;3.70;;;;;;;24.54;59.22;101906.00;5314200;28;20474;-70
2023/09/26 11:11:50;;;;;;;5.22;3.95;;;;;;;24.64;57.78;101908.56;5289053;28;20028;-70
2023/09/26 11:14:22;;;;;;;6.82;3.05;;;;;;;24.40;59.31;101907.44;5292907;28;20032;-69
2023/09/26 11:16:54;;;;;;;5.45;3.42;;;;;;;24.49;61.43;101903.78;5290604;28;20068;-70
2023/09/26 11:19:28;;;;;;;6.03;3.17;;;;;;;24.50;59.47;101891.25;5296400;28;20115;-69
2023/09/26 11:21:59;;;;;;;9.23;3.13;;;;;;;24.41;59.48;101880.50;5286100;28;20031;-69
2023/09/26 11:24:31;;;;;;;4.63;3.17;;;;;;;23.93;66.06;101879.97;5287991;28;20024;-69
2023/09/26 11:27:04;;;;;;;8.43;3.85;;;;;;;24.44;60.55;101878.47;5276109;28;20031;-70
2023/09/26 11:29:36;;;;;;;7.07;3.55;;;;;;;24.34;61.57;101890.16;5296392;28;20128;-69
2023/09/26 11:32:08;;;;;;;4.50;3.13;;;;;;;24.29;61.23;101897.81;5273811;28;20067;-69
2023/09/26 11:34:41;;;;;;;10.40;3.30;;;;;;;24.21;63.26;101887.06;5266764;28;20024;-70
2023/09/26 11:37:14;;;;;;;9.10;2.88;;;;;;;24.16;64.65;101880.31;5276830;28;20754;-69
2023/09/26 11:39:54;;;;;;;5.70;3.17;;;;;;;24.55;65.19;101877.38;5277694;28;20331;-70
2023/09/26 11:42:25;;;;;;;6.07;3.13;;;;;;;23.98;66.44;101866.97;5289267;28;20115;-69
2023/09/26 11:44:57;;;;;;;7.38;3.63;;;;;;;23.87;68.21;101868.09;5277457;28;20039;-69
2023/09/26 11:47:28;;;;;;;6.45;2.70;;;;;;;24.26;64.02;101868.72;5299336;28;20032;-69
2023/09/26 11:49:59;;;;;;;6.80;2.75;;;;;;;23.97;65.62;101873.34;5298830;28;20023;-69
2023/09/26 11:52:31;;;;;;;5.43;2.60;;;;;;;24.35;62.75;101862.38;5275058;28;20020;-69
2023/09/26 11:55:02;;;;;;;10.10;3.25;;;;;;;24.13;70.84;101864.59;5301883;28;20106;-69
2023/09/26 11:57:34;;;;;;;7.40;2.83;;;;;;;24.61;61.47;101864.19;5299458;28;20418;-71
2023/09/26 12:00:11;;;;;;;6.25;3.40;;;;;;;24.49;62.40;101860.13;5297615;28;20119;-70
2023/09/26 12:02:43;;;;;;;4.40;2.75;;;;;;;24.71;57.00;101853.34;5296081;28;20030;-70
2023/09/26 12:05:20;;;;;;;5.00;2.30;;;;;;;24.38;57.92;101854.03;5292940;28;20035;-69